createdAt,value
2022-09-03T00:02:12.291Z,1.00
2022-09-03T00:04:53.371Z,0.90
2022-09-03T00:07:42.802Z,0.70
2022-09-03T00:10:18.062Z,0.90
2022-09-03T00:12:47.471Z,0.80
2022-09-03T00:15:24.417Z,0.90
2022-09-03T00:18:09.255Z,0.80
2022-09-03T00:20:44.211Z,0.90
2022-09-03T00:23:19.456Z,0.82
2022-09-03T00:26:14.050Z,0.77
2022-09-03T00:28:54.852Z,0.80
2022-09-03T00:31:31.987Z,0.80
2022-09-03T00:34:04.768Z,0.95
2022-09-03T00:36:42.183Z,0.80
2022-09-03T00:39:17.589Z,0.68
2022-09-03T00:42:06.835Z,0.73
2022-09-03T00:45:16.939Z,0.93
2022-09-03T00:47:58.658Z,0.97
2022-09-03T00:50:52.983Z,0.80
2022-09-03T00:53:47.893Z,0.85
2022-09-03T00:56:36.431Z,0.80
2022-09-03T00:59:08.148Z,0.90
2022-09-03T01:01:40.293Z,0.88
2022-09-03T01:04:23.387Z,0.80
2022-09-03T01:07:25.231Z,0.98
2022-09-03T01:10:05.806Z,1.00
2022-09-03T01:12:55.431Z,1.10
2022-09-03T01:15:36.054Z,1.10
2022-09-03T01:18:17.878Z,0.95
2022-09-03T01:21:22.059Z,0.70
2022-09-03T01:24:18.235Z,0.98
2022-09-03T01:27:06.186Z,1.00
2022-09-03T01:29:39.616Z,0.90
2022-09-03T01:32:20.307Z,0.85
2022-09-03T01:35:08.966Z,1.00
2022-09-03T01:37:58.495Z,0.93
2022-09-03T01:40:31.024Z,1.00
2022-09-03T01:43:45.578Z,1.25
2022-09-03T01:46:23.356Z,1.27
2022-09-03T01:49:11.516Z,0.80
2022-09-03T01:51:38.303Z,1.00
2022-09-03T01:54:40.351Z,0.98
2022-09-03T01:57:35.912Z,0.80
2022-09-03T02:00:15.527Z,0.98
2022-09-03T02:02:44.264Z,0.90
2022-09-03T02:05:15.750Z,1.05
2022-09-03T02:07:46.624Z,1.20
2022-09-03T02:10:19.936Z,1.20
2022-09-03T02:12:53.540Z,0.93
2022-09-03T02:15:22.703Z,0.90
2022-09-03T02:17:54.861Z,0.95
2022-09-03T02:20:24.097Z,1.10
2022-09-03T02:22:51.193Z,0.95
2022-09-03T02:25:18.224Z,1.17
2022-09-03T02:27:46.048Z,1.35
2022-09-03T02:30:12.599Z,1.10
2022-09-03T02:32:39.372Z,1.05
2022-09-03T02:35:06.900Z,1.10
2022-09-03T02:37:33.352Z,1.10
2022-09-03T02:40:00.004Z,1.00
2022-09-03T02:42:27.263Z,0.93
2022-09-03T02:45:00.754Z,1.05
2022-09-03T02:47:32.370Z,1.10
2022-09-03T02:49:58.873Z,0.90
2022-09-03T02:52:25.380Z,1.48
2022-09-03T02:54:52.039Z,1.10
2022-09-03T02:57:20.102Z,0.90
2022-09-03T02:59:54.097Z,1.20
2022-09-03T03:02:20.631Z,1.23
2022-09-03T03:04:47.218Z,1.25
2022-09-03T03:07:13.775Z,1.50
2022-09-03T03:09:40.291Z,1.10
2022-09-03T03:12:07.292Z,1.17
2022-09-03T03:14:33.809Z,1.08
2022-09-03T03:17:00.448Z,1.45
2022-09-03T03:19:27.176Z,1.08
2022-09-03T03:21:54.003Z,0.95
2022-09-03T03:24:20.503Z,1.20
2022-09-03T03:26:46.977Z,1.20
2022-09-03T03:29:17.863Z,1.00
2022-09-03T03:31:44.321Z,0.98
2022-09-03T03:34:10.950Z,1.02
2022-09-03T03:36:37.680Z,1.10
2022-09-03T03:39:04.414Z,1.30
2022-09-03T03:41:33.358Z,0.90
2022-09-03T03:44:02.604Z,1.33
2022-09-03T03:46:32.078Z,1.05
2022-09-03T03:48:59.794Z,1.10
2022-09-03T03:51:26.610Z,1.17
2022-09-03T03:53:58.617Z,1.38
2022-09-03T03:56:27.234Z,1.02
2022-09-03T03:58:54.797Z,1.30
2022-09-03T04:01:24.064Z,1.30
2022-09-03T04:03:51.265Z,1.17
2022-09-03T04:06:19.848Z,1.20
2022-09-03T04:08:49.647Z,1.40
2022-09-03T04:11:19.833Z,1.65
2022-09-03T04:13:47.387Z,1.40
2022-09-03T04:16:25.395Z,1.45
2022-09-03T04:18:54.254Z,1.25
2022-09-03T04:21:23.726Z,1.50
2022-09-03T04:23:51.547Z,1.52
2022-09-03T04:26:20.990Z,1.40
2022-09-03T04:28:47.697Z,1.50
2022-09-03T04:31:16.709Z,1.30
2022-09-03T04:33:43.558Z,1.50
2022-09-03T04:36:19.204Z,1.58
2022-09-03T04:38:47.937Z,1.80
2022-09-03T04:41:16.887Z,1.60
2022-09-03T04:43:43.594Z,1.60
2022-09-03T04:46:17.612Z,1.85
2022-09-03T04:48:48.822Z,1.60
2022-09-03T04:51:17.446Z,1.42
2022-09-03T04:53:46.597Z,1.50
2022-09-03T04:56:14.248Z,1.65
2022-09-03T04:58:44.416Z,1.48
2022-09-03T05:01:12.739Z,1.40
2022-09-03T05:03:39.314Z,1.42
2022-09-03T05:06:06.559Z,1.75
2022-09-03T05:08:37.261Z,1.38
2022-09-03T05:11:05.318Z,1.53
2022-09-03T05:13:33.605Z,1.60
2022-09-03T05:16:06.435Z,1.20
2022-09-03T05:18:35.645Z,1.48
2022-09-03T05:21:12.805Z,1.30
2022-09-03T05:23:42.641Z,1.25
2022-09-03T05:26:12.304Z,1.40
2022-09-03T05:28:40.584Z,1.60
2022-09-03T05:31:08.803Z,1.60
2022-09-03T05:33:44.119Z,1.60
2022-09-03T05:36:16.095Z,1.67
2022-09-03T05:38:43.523Z,1.70
2022-09-03T05:41:12.327Z,1.50
2022-09-03T05:43:40.395Z,1.13
2022-09-03T05:46:09.552Z,1.27
2022-09-03T05:48:37.752Z,1.20
2022-09-03T05:51:07.516Z,1.10
2022-09-03T05:53:36.923Z,0.95
2022-09-03T05:56:06.621Z,1.20
2022-09-03T05:58:43.479Z,0.82
2022-09-03T06:01:11.009Z,1.30
2022-09-03T06:03:37.611Z,1.10
2022-09-03T06:06:05.466Z,1.13
2022-09-03T06:08:32.400Z,1.60
2022-09-03T06:11:00.489Z,0.93
2022-09-03T06:13:27.245Z,0.88
2022-09-03T06:16:02.067Z,1.00
2022-09-03T06:18:29.357Z,0.98
2022-09-03T06:20:57.359Z,0.88
2022-09-03T06:23:24.706Z,0.85
2022-09-03T06:26:09.577Z,0.90
2022-09-03T06:28:41.234Z,0.85
2022-09-03T06:31:09.769Z,0.80
2022-09-03T06:33:37.785Z,0.90
2022-09-03T06:36:08.964Z,1.02
2022-09-03T06:38:37.317Z,0.93
2022-09-03T06:41:12.426Z,0.80
2022-09-03T06:43:41.850Z,0.63
2022-09-03T06:46:09.896Z,0.80
2022-09-03T06:48:38.912Z,0.80
2022-09-03T06:51:08.358Z,0.70
2022-09-03T06:53:37.148Z,0.80
2022-09-03T06:56:15.702Z,0.73
2022-09-03T06:58:45.326Z,0.80
2022-09-03T07:01:14.963Z,0.68
2022-09-03T07:03:43.758Z,0.60
2022-09-03T07:06:14.471Z,0.90
2022-09-03T07:11:14.747Z,0.50
2022-09-03T07:13:44.236Z,0.70
2022-09-03T07:16:17.294Z,0.50
2022-09-03T07:18:44.712Z,0.75
2022-09-03T07:21:13.769Z,0.80
2022-09-03T07:23:42.150Z,0.80
2022-09-03T07:26:12.806Z,0.70
2022-09-03T07:31:12.631Z,0.70
2022-09-03T07:33:39.627Z,0.80
2022-09-03T07:36:11.458Z,0.90
2022-09-03T07:38:38.200Z,0.77
2022-09-03T07:41:08.701Z,0.70
2022-09-03T07:43:41.143Z,0.50
2022-09-03T07:46:08.880Z,0.60
2022-09-03T07:48:37.621Z,0.55
2022-09-03T07:51:04.723Z,0.60
2022-09-03T07:53:32.377Z,0.60
2022-09-03T07:56:11.526Z,0.63
2022-09-03T07:58:41.338Z,0.70
2022-09-03T08:01:13.504Z,0.60
2022-09-03T08:03:45.365Z,0.63
2022-09-03T08:06:12.932Z,0.68
2022-09-03T08:08:40.336Z,0.50
2022-09-03T08:11:12.370Z,0.60
2022-09-03T08:13:40.937Z,0.68
2022-09-03T08:16:09.526Z,0.60
2022-09-03T08:18:40.086Z,0.50
2022-09-03T08:23:38.847Z,0.70
2022-09-03T08:26:06.286Z,0.50
2022-09-03T08:28:39.317Z,0.60
2022-09-03T08:31:12.179Z,0.60
2022-09-03T08:33:44.641Z,0.60
2022-09-03T08:36:25.957Z,0.85
2022-09-03T08:38:55.373Z,0.50
2022-09-03T08:41:31.790Z,0.70
2022-09-03T08:44:19.912Z,0.55
2022-09-03T08:47:01.630Z,0.60
2022-09-03T08:49:34.515Z,0.68
2022-09-03T08:52:06.849Z,0.80
2022-09-03T08:54:33.587Z,0.90
2022-09-03T08:57:02.830Z,0.73
2022-09-03T08:59:33.039Z,0.70
2022-09-03T09:02:12.145Z,0.80
2022-09-03T09:05:20.425Z,0.80
2022-09-03T09:07:53.471Z,0.60
2022-09-03T09:10:44.624Z,0.60
2022-09-03T09:13:16.329Z,1.00
2022-09-03T09:15:55.095Z,0.77
2022-09-03T09:18:46.674Z,0.98
2022-09-03T09:21:27.565Z,0.60
2022-09-03T09:24:12.187Z,0.63
2022-09-03T09:26:41.820Z,0.93
2022-09-03T09:29:10.848Z,0.77
2022-09-03T09:31:44.699Z,0.80
2022-09-03T09:34:11.826Z,0.80
2022-09-03T09:36:50.721Z,0.85
2022-09-03T09:39:17.802Z,0.70
2022-09-03T09:41:58.984Z,0.80
2022-09-03T09:44:26.606Z,0.80
2022-09-03T09:47:04.866Z,0.80
2022-09-03T09:49:35.636Z,0.73
2022-09-03T09:52:06.724Z,0.70
2022-09-03T09:54:33.420Z,0.90
2022-09-03T09:57:06.230Z,0.60
2022-09-03T09:59:34.925Z,0.60
2022-09-03T10:02:18.212Z,0.60
2022-09-03T10:04:49.862Z,0.70
2022-09-03T10:07:25.477Z,0.50
2022-09-03T10:10:21.410Z,0.88
2022-09-03T10:13:10.033Z,0.82
2022-09-03T10:16:08.734Z,0.80
2022-09-03T10:19:04.674Z,0.90
2022-09-03T10:21:41.831Z,0.65
2022-09-03T10:24:17.261Z,0.60
2022-09-03T10:26:47.213Z,0.60
2022-09-03T10:29:20.201Z,0.80
2022-09-03T10:32:12.569Z,0.80
2022-09-03T10:35:00.209Z,0.70
2022-09-03T10:38:02.103Z,0.73
2022-09-03T10:40:48.555Z,0.88
2022-09-03T10:43:41.860Z,0.60
2022-09-03T10:46:18.378Z,0.80
2022-09-03T10:48:56.309Z,1.33
2022-09-03T10:51:57.177Z,1.08
2022-09-03T10:54:44.560Z,0.60
2022-09-03T10:57:23.714Z,0.60
2022-09-03T10:59:59.319Z,0.70
2022-09-03T11:02:38.115Z,0.60
2022-09-03T11:05:15.829Z,0.52
2022-09-03T11:07:52.000Z,0.77
2022-09-03T11:10:31.041Z,0.90
2022-09-03T11:12:57.744Z,0.68
2022-09-03T11:15:28.521Z,5.78
2022-09-03T11:18:03.584Z,9.60
2022-09-03T11:20:32.148Z,2.30
2022-09-03T11:23:03.060Z,1.17
2022-09-03T11:25:37.037Z,0.90
2022-09-03T11:28:42.250Z,0.90
2022-09-03T11:31:33.942Z,0.77
2022-09-03T11:34:17.851Z,0.80
2022-09-03T11:36:50.639Z,1.00
2022-09-03T11:39:36.665Z,0.80
2022-09-03T11:42:09.632Z,0.70
2022-09-03T11:44:37.953Z,0.70
2022-09-03T11:47:24.156Z,0.70
2022-09-03T11:49:53.632Z,0.50
2022-09-03T11:52:28.352Z,1.42
2022-09-03T11:54:55.581Z,0.90
2022-09-03T11:57:33.529Z,0.80
2022-09-03T12:00:14.624Z,0.60
2022-09-03T12:02:48.757Z,0.50
2022-09-03T12:05:33.194Z,0.60
2022-09-03T12:08:14.925Z,0.88
2022-09-03T12:10:53.342Z,0.70
2022-09-03T12:13:43.395Z,0.70
2022-09-03T12:16:45.987Z,0.68
2022-09-03T12:19:51.889Z,0.70
2022-09-03T12:22:20.184Z,0.85
2022-09-03T12:24:48.206Z,0.60
2022-09-03T12:27:26.895Z,0.63
2022-09-03T12:30:00.210Z,0.50
2022-09-03T12:32:32.508Z,0.50
2022-09-03T12:35:09.966Z,0.50
2022-09-03T12:40:27.698Z,0.50
2022-09-03T12:46:13.970Z,0.50
2022-09-03T12:51:51.950Z,0.50
2022-09-03T12:54:20.382Z,0.50
2022-09-03T12:56:53.875Z,0.45
2022-09-03T12:59:23.070Z,0.60
2022-09-03T13:01:56.917Z,0.73
2022-09-03T13:04:32.504Z,0.63
2022-09-03T13:07:11.823Z,0.50
2022-09-03T13:09:41.622Z,0.50
2022-09-03T13:12:21.366Z,0.50
2022-09-03T13:14:48.632Z,0.65
2022-09-03T13:17:52.197Z,0.70
2022-09-03T13:20:40.168Z,0.52
2022-09-03T13:23:25.822Z,0.70
2022-09-03T13:26:05.948Z,0.55
2022-09-03T13:31:53.229Z,0.50
2022-09-03T13:34:31.955Z,0.80
2022-09-03T13:37:13.491Z,0.45
2022-09-03T13:39:47.677Z,0.70
2022-09-03T13:42:24.243Z,0.70
2022-09-03T13:45:06.260Z,0.50
2022-09-03T13:48:30.610Z,0.60
2022-09-03T13:51:23.895Z,0.60
2022-09-03T13:54:05.033Z,0.60
2022-09-03T13:56:45.271Z,0.60
2022-09-03T13:59:29.169Z,0.80
2022-09-03T14:02:04.800Z,0.50
2022-09-03T14:04:49.181Z,0.50
2022-09-03T14:07:46.255Z,0.77
2022-09-03T14:10:39.915Z,0.60
2022-09-03T14:13:16.371Z,0.70
2022-09-03T14:16:15.708Z,0.63
2022-09-03T14:18:56.680Z,0.55
2022-09-03T14:21:29.502Z,0.82
2022-09-03T14:24:30.481Z,0.73
2022-09-03T14:27:02.387Z,0.55
2022-09-03T14:29:31.638Z,0.80
2022-09-03T14:32:16.447Z,0.63
2022-09-03T14:35:04.616Z,0.70
2022-09-03T14:37:46.339Z,0.60
2022-09-03T14:40:22.717Z,0.73
2022-09-03T14:43:13.748Z,0.85
2022-09-03T14:45:40.271Z,0.68
2022-09-03T14:48:25.077Z,0.80
2022-09-03T14:50:58.242Z,1.15
2022-09-03T14:53:56.858Z,0.52
2022-09-03T14:56:31.647Z,0.73
2022-09-03T14:59:28.945Z,0.70
2022-09-03T15:02:20.046Z,0.65
2022-09-03T15:05:12.075Z,0.90
2022-09-03T15:08:08.162Z,0.50
2022-09-03T15:11:01.273Z,0.73
2022-09-03T15:13:34.261Z,0.65
2022-09-03T15:16:34.628Z,0.68
2022-09-03T15:19:13.544Z,0.80
2022-09-03T15:21:42.752Z,0.63
2022-09-03T15:24:49.384Z,0.52
2022-09-03T15:27:31.928Z,0.52
2022-09-03T15:30:21.578Z,0.50
2022-09-03T15:32:48.172Z,0.73
2022-09-03T15:35:38.880Z,0.85
2022-09-03T15:38:30.405Z,0.68
2022-09-03T15:41:01.976Z,0.80
2022-09-03T15:43:33.742Z,0.60
2022-09-03T15:46:10.745Z,0.70
2022-09-03T15:49:05.240Z,0.50
2022-09-03T15:51:43.267Z,0.73
2022-09-03T15:54:25.215Z,1.00
2022-09-03T15:57:18.241Z,0.43
2022-09-03T16:00:22.195Z,0.70
2022-09-03T16:03:07.609Z,0.65
2022-09-03T16:05:57.181Z,0.68
2022-09-03T16:08:51.448Z,0.80
2022-09-03T16:11:27.379Z,0.55
2022-09-03T16:14:34.770Z,0.70
2022-09-03T16:17:04.280Z,0.65
2022-09-03T16:19:41.878Z,0.70
2022-09-03T16:22:26.155Z,0.70
2022-09-03T16:25:07.291Z,0.70
2022-09-03T16:27:40.334Z,0.60
2022-09-03T16:30:22.740Z,0.60
2022-09-03T16:33:13.922Z,0.60
2022-09-03T16:35:52.707Z,0.70
2022-09-03T16:38:44.759Z,0.65
2022-09-03T16:41:23.693Z,0.50
2022-09-03T16:44:16.909Z,0.50
2022-09-03T16:47:04.833Z,0.70
2022-09-03T16:50:10.712Z,0.90
2022-09-03T16:52:43.188Z,1.13
2022-09-03T16:55:25.310Z,0.80
2022-09-03T16:58:11.585Z,0.77
2022-09-03T17:01:16.327Z,0.90
2022-09-03T17:03:46.665Z,0.65
2022-09-03T17:06:21.214Z,0.80
2022-09-03T17:09:16.695Z,0.80
2022-09-03T17:11:56.673Z,0.52
2022-09-03T17:15:01.819Z,0.60
2022-09-03T17:17:57.475Z,0.90
2022-09-03T17:20:50.283Z,0.60
2022-09-03T17:23:26.394Z,0.70
2022-09-03T17:26:29.655Z,1.00
2022-09-03T17:29:26.560Z,0.60
2022-09-03T17:32:48.681Z,2.00
2022-09-03T17:35:25.429Z,2.42
2022-09-03T17:38:25.712Z,2.40
2022-09-03T17:40:55.888Z,1.77
2022-09-03T17:43:38.986Z,1.60
2022-09-03T17:46:20.443Z,1.67
2022-09-03T17:48:53.527Z,1.38
2022-09-03T17:51:39.346Z,1.40
2022-09-03T17:54:28.565Z,1.50
2022-09-03T17:57:13.253Z,1.30
2022-09-03T18:00:02.733Z,1.65
2022-09-03T18:02:37.253Z,1.63
2022-09-03T18:05:27.569Z,1.40
2022-09-03T18:08:12.806Z,1.80
2022-09-03T18:11:01.118Z,1.85
2022-09-03T18:14:09.238Z,2.13
2022-09-03T18:16:46.017Z,2.33
2022-09-03T18:20:08.916Z,2.85
2022-09-03T18:23:11.151Z,2.90
2022-09-03T18:25:59.663Z,3.95
2022-09-03T18:29:10.002Z,4.68
2022-09-03T18:31:55.530Z,4.40
2022-09-03T18:34:49.132Z,4.70
2022-09-03T18:37:39.061Z,3.83
2022-09-03T18:40:27.002Z,4.07
2022-09-03T18:43:42.748Z,3.78
2022-09-03T18:48:01.239Z,3.80
2022-09-03T18:50:12.717Z,3.50
2022-09-03T18:53:18.342Z,3.30
2022-09-03T18:56:13.125Z,2.80
2022-09-03T18:59:08.816Z,2.60
2022-09-03T19:01:59.853Z,2.67
2022-09-03T19:05:31.352Z,3.03
2022-09-03T19:08:43.667Z,3.50
2022-09-03T19:11:52.240Z,3.45
2022-09-03T19:14:58.455Z,3.55
2022-09-03T19:17:54.011Z,3.97
2022-09-03T19:20:50.722Z,2.85
2022-09-03T19:23:35.891Z,2.88
2022-09-03T19:26:58.948Z,2.63
2022-09-03T19:29:55.427Z,2.65
2022-09-03T19:32:54.865Z,2.80
2022-09-03T19:35:49.256Z,3.15
2022-09-03T19:39:04.348Z,3.17
2022-09-03T19:42:03.944Z,3.05
2022-09-03T19:45:17.557Z,2.80
2022-09-03T19:48:33.442Z,2.67
2022-09-03T19:51:54.344Z,2.50
2022-09-03T19:54:42.776Z,3.00
2022-09-03T19:57:32.052Z,2.60
2022-09-03T20:00:17.892Z,3.05
2022-09-03T20:03:20.533Z,2.55
2022-09-03T20:06:10.234Z,2.55
2022-09-03T20:08:58.338Z,2.70
2022-09-03T20:11:28.207Z,2.78
2022-09-03T20:14:15.744Z,2.65
2022-09-03T20:16:48.479Z,2.92
2022-09-03T20:19:43.110Z,3.13
2022-09-03T20:22:12.594Z,2.97
2022-09-03T20:24:55.917Z,3.45
2022-09-03T20:28:06.875Z,2.63
2022-09-03T20:33:42.023Z,2.55
2022-09-03T20:36:14.845Z,2.80
2022-09-03T20:39:11.134Z,2.67
2022-09-03T20:41:58.189Z,2.50
2022-09-03T20:44:36.849Z,2.65
2022-09-03T20:47:23.552Z,2.72
2022-09-03T20:50:40.133Z,2.90
2022-09-03T20:53:33.146Z,2.55
2022-09-03T20:56:10.662Z,2.75
2022-09-03T20:59:04.143Z,2.70
2022-09-03T21:01:53.972Z,2.55
2022-09-03T21:04:38.689Z,3.00
2022-09-03T21:07:43.205Z,2.67
2022-09-03T21:10:26.905Z,2.60
2022-09-03T21:13:02.057Z,2.95
2022-09-03T21:15:38.341Z,2.97
2022-09-03T21:18:38.606Z,3.13
2022-09-03T21:21:23.786Z,3.03
2022-09-03T21:24:05.018Z,3.00
2022-09-03T21:26:39.827Z,2.65
2022-09-03T21:29:30.676Z,2.88
2022-09-03T21:32:05.902Z,3.35
2022-09-03T21:34:43.707Z,3.15
2022-09-03T21:37:13.938Z,3.15
2022-09-03T21:39:55.875Z,3.40
2022-09-03T21:42:42.316Z,3.17
2022-09-03T21:45:15.157Z,3.50
2022-09-03T21:47:48.045Z,3.67
2022-09-03T21:50:18.536Z,3.50
2022-09-03T21:52:45.054Z,4.10
2022-09-03T21:55:20.770Z,3.80
2022-09-03T21:58:19.794Z,3.38
2022-09-03T22:00:46.720Z,3.60
2022-09-03T22:03:13.877Z,3.60
2022-09-03T22:05:57.217Z,3.72
2022-09-03T22:08:34.957Z,3.45
2022-09-03T22:11:25.867Z,3.28
2022-09-03T22:14:02.840Z,3.83
2022-09-03T22:16:41.501Z,3.88
2022-09-03T22:19:09.033Z,3.50
2022-09-03T22:21:44.404Z,3.78
2022-09-03T22:24:42.599Z,3.95
2022-09-03T22:27:32.886Z,3.78
2022-09-03T22:30:07.127Z,4.03
2022-09-03T22:32:45.613Z,3.60
2022-09-03T22:35:17.762Z,3.95
2022-09-03T22:37:59.723Z,3.92
2022-09-03T22:40:33.673Z,3.67
2022-09-03T22:43:10.028Z,4.03
2022-09-03T22:45:54.384Z,3.60
2022-09-03T22:48:54.819Z,3.97
2022-09-03T22:51:21.992Z,3.60
2022-09-03T22:54:13.338Z,3.83
2022-09-03T22:56:41.359Z,3.92
2022-09-03T22:59:15.268Z,3.70
2022-09-03T23:01:44.711Z,4.20
2022-09-03T23:04:21.356Z,3.80
2022-09-03T23:06:59.669Z,4.35
2022-09-03T23:09:34.748Z,3.90
2022-09-03T23:12:07.116Z,3.78
2022-09-03T23:14:41.376Z,3.88
2022-09-03T23:17:15.083Z,3.97
2022-09-03T23:19:48.869Z,3.83
2022-09-03T23:22:59.422Z,4.20
2022-09-03T23:25:33.867Z,4.18
2022-09-03T23:28:06.630Z,4.35
2022-09-03T23:30:33.094Z,4.28
2022-09-03T23:33:00.202Z,4.50
2022-09-03T23:35:35.057Z,4.70
2022-09-03T23:38:24.201Z,4.50
2022-09-03T23:40:54.859Z,4.30
2022-09-03T23:43:37.388Z,4.35
2022-09-03T23:46:36.292Z,4.88
2022-09-03T23:49:25.434Z,4.15
2022-09-03T23:51:57.694Z,4.18
2022-09-03T23:54:45.182Z,4.28
2022-09-03T23:57:24.821Z,4.00
